Time;durP1;ratioP1;P1;durP2;ratioP2;P2;SDS_P1;SDS_P2;PMS_P1;PMS_P2;Temp;Humidity;BMP_temperature;BMP_pressure;BME280_temperature;BME280_humidity;BME280_pressure;Samples;Min_cycle;Max_cycle;Signal;HPM_P1;HPM_P2
2020/12/16 00:00:08;;;;;;;43.00;25.85;;;8.90;99.90;;;;;;4989525;28;20521;-65
2020/12/16 00:02:34;;;;;;;42.72;25.25;;;8.90;99.90;;;;;;4989833;28;20023;-65
2020/12/16 00:05:00;;;;;;;41.00;25.50;;;8.90;99.90;;;;;;4973443;28;20033;-65
2020/12/16 00:07:27;;;;;;;39.88;24.95;;;8.80;99.90;;;;;;4990665;28;20086;-63
2020/12/16 00:09:52;;;;;;;42.25;24.80;;;8.80;99.90;;;;;;4987990;28;20054;-65
2020/12/16 00:12:18;;;;;;;43.05;26.10;;;8.70;99.90;;;;;;4990171;28;20077;-63
2020/12/16 00:14:44;;;;;;;43.80;25.60;;;8.70;99.90;;;;;;4989827;28;20045;-65
2020/12/16 00:17:11;;;;;;;43.65;26.17;;;8.60;99.90;;;;;;4989611;28;20145;-66
2020/12/16 00:19:37;;;;;;;44.13;26.33;;;8.60;99.90;;;;;;4971995;28;20034;-64
2020/12/16 00:22:03;;;;;;;44.65;25.40;;;8.50;99.90;;;;;;4989718;28;20081;-64
2020/12/16 00:24:28;;;;;;;48.15;26.55;;;8.50;99.90;;;;;;4972114;28;20030;-64
2020/12/16 00:26:54;;;;;;;45.17;26.15;;;8.40;99.90;;;;;;4990156;28;20103;-64
2020/12/16 00:29:19;;;;;;;46.45;26.80;;;8.40;99.90;;;;;;4989147;28;20094;-65
2020/12/16 00:31:45;;;;;;;45.65;25.88;;;8.40;99.90;;;;;;4972468;28;20064;-65
2020/12/16 00:34:11;;;;;;;41.22;25.70;;;8.40;99.90;;;;;;4971779;28;20027;-65
2020/12/16 00:36:40;;;;;;;45.55;26.35;;;8.30;99.90;;;;;;4989746;28;20501;-63
2020/12/16 00:39:08;;;;;;;42.63;25.50;;;8.20;99.90;;;;;;4989078;28;20058;-65
2020/12/16 00:41:36;;;;;;;47.15;26.63;;;8.00;99.90;;;;;;4971534;28;20080;-66
2020/12/16 00:44:03;;;;;;;50.25;28.08;;;7.90;99.90;;;;;;4989425;28;20034;-65
2020/12/16 00:46:29;;;;;;;44.55;27.17;;;7.70;99.90;;;;;;4989182;28;20026;-66
2020/12/16 00:48:54;;;;;;;46.97;27.48;;;7.60;99.90;;;;;;4988262;28;20051;-66
2020/12/16 00:51:20;;;;;;;45.88;26.88;;;7.50;99.90;;;;;;4991239;28;20065;-65
2020/12/16 00:53:46;;;;;;;47.92;27.30;;;7.40;99.90;;;;;;4974216;28;20026;-64
2020/12/16 00:56:12;;;;;;;49.30;27.15;;;7.30;99.90;;;;;;4974688;28;20104;-66
2020/12/16 00:58:38;;;;;;;47.83;27.02;;;7.20;99.90;;;;;;4991704;28;20028;-65
2020/12/16 01:01:04;;;;;;;55.97;29.75;;;7.20;99.90;;;;;;4974493;28;20022;-65
2020/12/16 01:03:30;;;;;;;52.88;28.80;;;7.10;99.90;;;;;;4992079;28;20050;-66
2020/12/16 01:06:05;;;;;;;46.92;27.45;;;7.00;99.90;;;;;;4974566;28;20104;-63
2020/12/16 01:08:31;;;;;;;45.58;25.65;;;6.90;99.90;;;;;;4991583;28;20030;-66
2020/12/16 01:10:57;;;;;;;46.78;27.23;;;6.80;99.90;;;;;;4974383;28;20411;-64
2020/12/16 01:13:23;;;;;;;52.83;27.00;;;6.70;99.90;;;;;;4992204;28;20633;-66
2020/12/16 01:15:49;;;;;;;51.10;28.00;;;6.60;99.90;;;;;;4991923;28;20023;-66
2020/12/16 01:18:17;;;;;;;56.72;29.30;;;6.60;99.90;;;;;;4973956;28;20048;-65
2020/12/16 01:20:46;;;;;;;;;;;6.60;99.90;;;;;;4990881;28;20034;-65
2020/12/16 01:23:34;;;;;;;54.58;28.85;;;6.60;99.90;;;;;;4990543;28;19905;-66
2020/12/16 01:26:00;;;;;;;60.42;29.58;;;6.60;99.90;;;;;;4991873;28;20026;-66
2020/12/16 01:28:25;;;;;;;51.97;29.83;;;6.60;99.90;;;;;;4973862;28;20161;-67
2020/12/16 01:30:54;;;;;;;59.78;29.88;;;6.50;99.90;;;;;;4991398;28;20029;-66
2020/12/16 01:33:37;;;;;;;58.42;31.05;;;6.60;99.90;;;;;;5023132;23;20041;-55
2020/12/16 01:36:03;;;;;;;62.65;31.85;;;6.60;99.90;;;;;;5012167;28;20018;-56
2020/12/16 01:38:29;;;;;;;69.70;31.98;;;6.50;99.90;;;;;;4993713;28;20025;-57
2020/12/16 01:41:03;;;;;;;57.28;31.20;;;6.60;99.90;;;;;;5010849;28;20119;-57
2020/12/16 01:43:37;;;;;;;63.13;31.08;;;6.60;99.90;;;;;;5011951;28;20026;-55
2020/12/16 01:46:04;;;;;;;54.90;29.80;;;6.60;99.90;;;;;;5012144;28;20441;-55
2020/12/16 01:48:33;;;;;;;56.95;28.85;;;6.50;99.90;;;;;;4993761;28;20536;-55
2020/12/16 01:50:58;;;;;;;;;;;6.50;99.90;;;;;;4994981;28;20040;-58
2020/12/16 01:53:27;;;;;;;65.85;31.55;;;6.60;99.90;;;;;;5008179;28;19921;-58
2020/12/16 01:55:53;;;;;;;64.70;29.35;;;6.70;99.90;;;;;;4991406;28;20080;-57
2020/12/16 01:58:21;;;;;;;55.78;29.60;;;6.80;99.90;;;;;;4993446;28;20021;-57
2020/12/16 02:00:48;;;;;;;53.80;28.52;;;6.90;99.90;;;;;;5011694;28;20034;-56
2020/12/16 02:03:17;;;;;;;56.72;30.25;;;6.80;99.90;;;;;;5008443;28;20122;-56
2020/12/16 02:05:47;;;;;;;52.97;27.90;;;6.70;99.90;;;;;;4975224;28;20037;-58
2020/12/16 02:08:15;;;;;;;67.13;32.35;;;6.60;99.90;;;;;;4992040;28;20034;-55
2020/12/16 02:10:41;;;;;;;61.67;31.10;;;6.70;99.90;;;;;;4991770;28;20057;-55
2020/12/16 02:13:07;;;;;;;52.88;26.80;;;6.70;99.90;;;;;;4974764;28;20073;-55
2020/12/16 02:15:33;;;;;;;48.30;25.42;;;6.60;99.90;;;;;;4992157;28;20402;-56
2020/12/16 02:17:59;;;;;;;49.95;27.55;;;6.50;99.90;;;;;;4974166;28;20025;-59
2020/12/16 02:20:25;;;;;;;46.30;25.98;;;6.40;99.90;;;;;;4991711;28;20101;-55
2020/12/16 02:22:51;;;;;;;47.70;27.67;;;6.30;99.90;;;;;;4981911;28;20124;-57
2020/12/16 02:25:17;;;;;;;48.63;26.10;;;6.30;99.90;;;;;;5001729;28;20542;-56
2020/12/16 02:27:43;;;;;;;51.92;26.83;;;6.20;99.90;;;;;;4993528;28;20037;-59
2020/12/16 02:30:13;;;;;;;54.72;28.05;;;6.30;99.90;;;;;;5010977;28;20497;-55
2020/12/16 02:32:56;;;;;;;54.60;29.23;;;6.40;99.90;;;;;;5012508;28;20117;-53
2020/12/16 02:35:22;;;;;;;61.70;30.27;;;6.50;99.90;;;;;;5004443;28;20848;-59
2020/12/16 02:37:48;;;;;;;62.72;29.67;;;6.70;99.90;;;;;;4989309;28;20060;-54
2020/12/16 02:40:13;;;;;;;63.50;30.00;;;6.70;99.90;;;;;;5014784;28;20022;-56
2020/12/16 02:42:39;;;;;;;54.92;30.02;;;6.80;99.90;;;;;;5015359;28;20049;-57
2020/12/16 02:45:04;;;;;;;56.70;30.60;;;6.80;99.90;;;;;;5006980;28;20034;-56
2020/12/16 02:47:31;;;;;;;63.50;31.77;;;6.80;99.90;;;;;;5015288;28;20057;-55
2020/12/16 02:49:57;;;;;;;62.25;30.52;;;7.00;99.90;;;;;;5014865;28;20465;-58
2020/12/16 02:52:23;;;;;;;58.40;30.30;;;7.10;99.90;;;;;;5015340;28;20420;-56
2020/12/16 02:54:49;;;;;;;61.80;31.00;;;7.10;99.90;;;;;;5000746;28;20125;-58
2020/12/16 02:57:15;;;;;;;56.55;30.35;;;7.30;99.90;;;;;;4978141;28;20019;-51
2020/12/16 02:59:56;;;;;;;60.53;29.90;;;7.30;99.90;;;;;;4994834;28;20489;-58
2020/12/16 03:02:22;;;;;;;58.22;29.88;;;7.40;99.90;;;;;;4992432;28;20044;-60
2020/12/16 03:04:48;;;;;;;56.03;28.30;;;7.40;99.90;;;;;;5014896;28;20507;-56
2020/12/16 03:07:14;;;;;;;52.40;27.60;;;7.40;99.90;;;;;;4997523;28;20026;-56
2020/12/16 03:09:39;;;;;;;54.13;28.90;;;7.50;99.90;;;;;;4996296;28;20034;-56
2020/12/16 03:12:05;;;;;;;51.42;28.23;;;7.50;99.90;;;;;;4980670;28;20041;-56
2020/12/16 03:14:31;;;;;;;50.33;27.98;;;7.50;99.90;;;;;;4989255;28;20029;-59
2020/12/16 03:16:57;;;;;;;51.00;26.35;;;7.50;99.90;;;;;;5001264;28;20026;-56
2020/12/16 03:19:24;;;;;;;45.72;26.38;;;7.50;99.90;;;;;;5013913;28;20018;-56
2020/12/16 03:21:50;;;;;;;50.33;27.58;;;7.50;99.90;;;;;;5014483;28;20025;-57
2020/12/16 03:24:16;;;;;;;49.88;27.98;;;7.50;99.90;;;;;;4997274;28;20084;-57
2020/12/16 03:26:41;;;;;;;47.42;27.15;;;7.50;99.90;;;;;;5014521;28;20042;-60
2020/12/16 03:29:08;;;;;;;50.60;26.30;;;7.40;99.90;;;;;;4979517;28;20034;-59
2020/12/16 03:31:33;;;;;;;43.90;25.30;;;7.40;99.90;;;;;;4977148;28;20031;-48
2020/12/16 03:33:59;;;;;;;44.00;24.92;;;7.40;99.90;;;;;;4977417;28;20037;-56
2020/12/16 03:36:25;;;;;;;44.17;26.13;;;7.40;99.90;;;;;;4977401;28;20367;-58
2020/12/16 03:38:51;;;;;;;44.55;26.25;;;7.40;99.90;;;;;;4982385;28;20042;-56
2020/12/16 03:41:17;;;;;;;42.22;24.02;;;7.30;99.90;;;;;;4983881;28;20490;-59
2020/12/16 03:43:51;;;;;;;44.38;26.88;;;7.40;99.90;;;;;;4995691;28;20066;-58
2020/12/16 03:46:20;;;;;;;45.55;27.08;;;7.40;99.90;;;;;;5013748;28;20413;-54
2020/12/16 03:48:45;;;;;;;44.17;24.20;;;7.30;99.90;;;;;;4994579;28;20751;-59
2020/12/16 03:51:13;;;;;;;43.00;25.33;;;7.30;99.90;;;;;;4996150;28;20038;-56
2020/12/16 03:53:43;;;;;;;40.40;24.50;;;7.20;99.90;;;;;;4996524;28;20032;-61
2020/12/16 03:56:13;;;;;;;39.28;22.38;;;7.10;99.90;;;;;;4999504;28;20704;-58
2020/12/16 03:58:47;;;;;;;39.85;23.20;;;6.90;99.90;;;;;;4976040;28;20462;-56
2020/12/16 04:01:14;;;;;;;41.53;22.98;;;6.70;99.90;;;;;;4994514;28;20026;-53
2020/12/16 04:03:41;;;;;;;40.13;24.15;;;6.60;99.90;;;;;;4996461;28;20035;-55
2020/12/16 04:06:09;;;;;;;41.97;24.85;;;6.50;99.90;;;;;;4996290;28;20029;-56
2020/12/16 04:08:42;;;;;;;43.00;24.77;;;6.40;99.90;;;;;;4995610;28;20107;-58
2020/12/16 04:11:21;;;;;;;44.33;25.45;;;6.20;99.90;;;;;;5001325;28;20022;-56
2020/12/16 04:13:47;;;;;;;43.45;26.50;;;6.20;99.90;;;;;;5006888;28;20054;-58
2020/12/16 04:16:20;;;;;;;46.28;26.23;;;6.10;99.90;;;;;;5012911;28;20034;-49
2020/12/16 04:18:49;;;;;;;44.85;25.38;;;6.10;99.90;;;;;;4999819;28;20390;-58
2020/12/16 04:21:20;;;;;;;47.58;26.42;;;6.00;99.90;;;;;;4976665;28;20073;-58
2020/12/16 04:23:55;;;;;;;53.03;26.88;;;5.90;99.90;;;;;;4989117;28;20033;-56
2020/12/16 04:26:31;;;;;;;52.38;28.63;;;5.90;99.90;;;;;;5011606;28;20037;-58
2020/12/16 04:29:00;;;;;;;59.10;29.17;;;5.80;99.90;;;;;;5012714;28;20184;-56
2020/12/16 04:32:13;;;;;;;52.42;29.75;;;5.80;99.90;;;;;;5011970;28;20072;-53
2020/12/16 04:34:49;;;;;;;52.38;30.02;;;5.70;99.90;;;;;;5018994;28;20026;-55
2020/12/16 04:37:18;;;;;;;54.20;30.17;;;5.70;99.90;;;;;;4980083;28;20030;-57
2020/12/16 04:39:49;;;;;;;;;;;5.60;99.90;;;;;;4995771;28;20064;-55
2020/12/16 04:42:30;;;;;;;54.78;29.90;;;5.60;99.90;;;;;;5004483;28;19910;-57
2020/12/16 04:44:56;;;;;;;53.72;26.67;;;5.60;99.90;;;;;;4993673;28;20026;-58
2020/12/16 04:47:32;;;;;;;50.13;28.50;;;5.60;99.90;;;;;;5013028;28;20030;-55
2020/12/16 04:49:57;;;;;;;54.13;28.52;;;5.60;99.90;;;;;;4999636;28;20030;-54
2020/12/16 04:52:32;;;;;;;54.40;29.90;;;5.50;99.90;;;;;;4993837;28;20544;-53
2020/12/16 04:54:58;;;;;;;55.35;29.50;;;5.50;99.90;;;;;;4991643;28;20026;-55
2020/12/16 04:57:33;;;;;;;59.72;31.33;;;5.50;99.90;;;;;;4995197;28;20049;-54
2020/12/16 05:00:30;;;;;;;58.10;28.63;;;5.40;99.90;;;;;;4975555;28;20030;-52
2020/12/16 05:03:13;;;;;;;57.08;30.40;;;5.40;99.90;;;;;;4992109;28;20027;-57
2020/12/16 05:05:48;;;;;;;66.07;31.02;;;5.50;99.90;;;;;;4993343;28;20338;-54
2020/12/16 05:09:00;;;;;;;65.55;31.17;;;5.50;99.90;;;;;;4998564;28;20037;-58
2020/12/16 05:11:34;;;;;;;59.13;31.38;;;5.40;99.90;;;;;;4994745;28;20029;-51
2020/12/16 05:14:10;;;;;;;60.13;29.33;;;5.40;99.90;;;;;;5006866;28;20025;-57
2020/12/16 05:16:55;;;;;;;64.13;30.75;;;5.40;99.90;;;;;;4994712;28;20040;-57
2020/12/16 05:19:32;;;;;;;66.00;33.83;;;5.30;99.90;;;;;;5012083;28;20022;-56
2020/12/16 05:22:19;;;;;;;65.68;34.67;;;5.30;99.90;;;;;;4994748;28;20030;-56
2020/12/16 05:24:49;;;;;;;75.68;37.10;;;5.40;99.90;;;;;;4995090;28;20038;-61
2020/12/16 05:27:55;;;;;;;78.15;39.38;;;5.50;99.90;;;;;;4994532;28;20037;-60
2020/12/16 05:30:30;;;;;;;81.93;40.17;;;5.60;99.90;;;;;;4979928;28;20037;-58
2020/12/16 05:32:59;;;;;;;72.55;40.35;;;5.60;99.90;;;;;;4993880;28;20409;-50
2020/12/16 05:35:25;;;;;;;75.38;41.47;;;5.40;99.90;;;;;;4994708;28;20029;-55
2020/12/16 05:38:16;;;;;;;74.72;36.65;;;5.40;99.90;;;;;;4994380;28;20033;-59
2020/12/16 05:40:41;;;;;;;73.10;35.58;;;5.40;99.90;;;;;;4997107;28;20120;-56
2020/12/16 05:43:10;;;;;;;80.78;36.83;;;5.30;99.90;;;;;;5004081;28;20473;-56
2020/12/16 05:45:47;;;;;;;67.60;33.58;;;5.30;99.90;;;;;;4990150;28;20038;-53
2020/12/16 05:48:32;;;;;;;67.40;30.55;;;5.20;99.90;;;;;;4991063;28;20022;-57
2020/12/16 05:51:01;;;;;;;73.00;32.95;;;5.30;99.90;;;;;;4984512;28;20408;-59
2020/12/16 05:53:47;;;;;;;;;;;5.50;99.90;;;;;;4994700;28;20141;-55
2020/12/16 05:56:13;;;;;;;72.00;31.23;;;5.60;99.90;;;;;;4992561;28;20337;-52
2020/12/16 05:58:42;;;;;;;73.63;34.15;;;5.70;99.90;;;;;;5001830;28;20040;-54
2020/12/16 06:01:13;;;;;;;67.35;32.35;;;5.60;99.90;;;;;;4992096;28;20070;-57
2020/12/16 06:03:42;;;;;;;67.38;32.30;;;5.50;99.90;;;;;;4974480;28;20078;-54
2020/12/16 06:06:30;;;;;;;66.57;32.58;;;5.40;99.90;;;;;;4991763;28;20026;-59
2020/12/16 06:08:59;;;;;;;75.38;32.05;;;5.40;99.90;;;;;;4989944;28;20026;-56
2020/12/16 06:11:40;;;;;;;70.30;34.10;;;5.40;99.90;;;;;;4991991;28;20042;-49
2020/12/16 06:14:17;;;;;;;74.28;32.88;;;5.40;99.90;;;;;;5000927;28;20084;-58
2020/12/16 06:16:50;;;;;;;61.47;30.90;;;5.30;99.90;;;;;;4992777;28;20030;-57
2020/12/16 06:19:31;;;;;;;59.58;30.63;;;5.20;99.90;;;;;;4991012;28;20442;-56
2020/12/16 06:22:09;;;;;;;63.88;33.10;;;5.20;99.90;;;;;;4974276;28;20390;-55
2020/12/16 06:24:42;;;;;;;63.08;29.60;;;5.10;99.90;;;;;;4998131;28;20068;-61
2020/12/16 06:27:33;;;;;;;63.35;32.00;;;5.10;99.90;;;;;;4993939;28;20436;-57
2020/12/16 06:30:03;;;;;;;63.75;30.33;;;5.10;99.90;;;;;;4976475;28;20489;-58
2020/12/16 06:32:40;;;;;;;60.88;31.50;;;5.00;99.90;;;;;;4990312;28;20034;-58
2020/12/16 06:35:15;;;;;;;61.45;29.70;;;5.10;99.90;;;;;;4999631;28;20109;-52
2020/12/16 06:37:40;;;;;;;58.22;30.17;;;5.00;99.90;;;;;;5011100;28;20026;-59
2020/12/16 06:40:15;;;;;;;59.63;30.02;;;5.00;99.90;;;;;;4993103;28;20108;-54
2020/12/16 06:43:04;;;;;;;66.65;31.58;;;5.00;99.90;;;;;;4993474;28;20030;-58
2020/12/16 06:48:35;;;;;;;62.58;30.63;;;4.90;99.90;;;;;;4983320;28;20050;-52
2020/12/16 06:51:21;;;;;;;55.55;30.98;;;4.90;99.90;;;;;;5005659;28;20084;-53
2020/12/16 06:53:48;;;;;;;66.13;32.38;;;4.90;99.90;;;;;;4991620;28;20197;-58
2020/12/16 06:56:23;;;;;;;60.72;29.95;;;4.90;99.90;;;;;;5010731;28;20029;-57
2020/12/16 06:58:48;;;;;;;74.38;32.55;;;4.90;99.90;;;;;;4992691;28;20030;-56
2020/12/16 07:01:16;;;;;;;70.20;31.30;;;5.00;99.90;;;;;;4993409;28;20064;-57
2020/12/16 07:03:42;;;;;;;66.97;32.97;;;4.90;99.90;;;;;;5010914;28;20033;-59
2020/12/16 07:06:31;;;;;;;65.55;32.00;;;4.90;99.90;;;;;;5009451;28;20026;-54
2020/12/16 07:09:23;;;;;;;64.22;34.92;;;4.80;99.90;;;;;;4980122;28;20152;-59
2020/12/16 07:11:54;;;;;;;64.75;34.60;;;4.80;99.90;;;;;;5009487;28;20074;-56
2020/12/16 07:14:25;;;;;;;64.00;34.88;;;4.70;99.90;;;;;;4993097;28;20064;-59
2020/12/16 07:16:52;;;;;;;59.47;31.50;;;4.70;99.90;;;;;;4992616;28;20037;-55
2020/12/16 07:19:28;;;;;;;69.07;34.58;;;4.70;99.90;;;;;;4998449;28;20529;-58
2020/12/16 07:21:55;;;;;;;65.47;33.75;;;4.90;99.90;;;;;;5007465;28;20394;-56
2020/12/16 07:24:22;;;;;;;64.53;34.33;;;4.80;99.90;;;;;;4994753;28;20022;-59
2020/12/16 07:26:51;;;;;;;66.80;34.03;;;4.80;99.90;;;;;;4994043;28;20433;-61
2020/12/16 07:29:23;;;;;;;57.95;31.60;;;4.80;99.90;;;;;;4994187;28;20033;-58
2020/12/16 07:34:20;;;;;;;65.22;33.10;;;4.80;99.90;;;;;;5032122;23;20117;-67
2020/12/16 07:36:52;;;;;;;55.53;31.60;;;4.80;99.90;;;;;;5012696;28;20112;-64
2020/12/16 07:39:18;;;;;;;60.25;30.40;;;4.80;99.90;;;;;;5012410;28;20128;-62
2020/12/16 07:41:45;;;;;;;63.30;35.65;;;4.70;99.90;;;;;;4995355;28;20061;-67
2020/12/16 07:44:11;;;;;;;66.85;33.63;;;4.90;99.90;;;;;;5012869;28;20061;-67
2020/12/16 07:46:37;;;;;;;75.35;35.85;;;4.90;99.90;;;;;;4995105;28;20045;-62
2020/12/16 07:49:02;;;;;;;71.60;34.70;;;5.00;99.90;;;;;;5003888;28;20390;-67
2020/12/16 07:51:29;;;;;;;70.72;35.15;;;5.20;99.90;;;;;;5001424;28;20382;-67
2020/12/16 07:53:55;;;;;;;69.22;39.67;;;5.30;99.90;;;;;;4995027;28;20034;-67
2020/12/16 07:56:20;;;;;;;88.95;45.40;;;5.50;99.90;;;;;;5012430;28;20080;-67
2020/12/16 07:58:47;;;;;;;89.50;47.72;;;5.50;99.90;;;;;;4997862;28;20500;-64
2020/12/16 08:01:18;;;;;;;89.00;47.30;;;5.60;99.90;;;;;;4975251;28;20053;-66
2020/12/16 08:03:44;;;;;;;84.47;46.47;;;5.70;99.90;;;;;;4993038;28;20034;-65
2020/12/16 08:06:10;;;;;;;74.63;40.97;;;5.80;99.90;;;;;;4975503;28;20074;-65
2020/12/16 08:08:52;;;;;;;72.85;41.53;;;5.80;99.90;;;;;;5004819;28;20452;-66
2020/12/16 08:11:22;;;;;;;66.65;35.55;;;5.80;99.90;;;;;;5012349;28;20489;-66
2020/12/16 08:13:48;;;;;;;64.78;36.72;;;5.90;99.90;;;;;;5012300;28;20042;-66
2020/12/16 08:16:15;;;;;;;62.92;36.40;;;5.90;99.90;;;;;;4994894;28;20022;-66
2020/12/16 08:18:49;;;;;;;58.75;36.55;;;6.00;99.90;;;;;;5009511;28;20064;-68
2020/12/16 08:21:20;;;;;;;62.67;37.45;;;5.90;99.90;;;;;;5008135;28;20463;-67
2020/12/16 08:23:48;;;;;;;58.30;34.17;;;6.00;99.90;;;;;;4992958;28;20496;-68
2020/12/16 08:26:14;;;;;;;57.17;34.97;;;6.00;99.90;;;;;;4992674;28;20057;-66
2020/12/16 08:28:40;;;;;;;64.35;36.72;;;5.90;99.90;;;;;;4992800;28;20026;-66
2020/12/16 08:31:07;;;;;;;54.83;33.08;;;6.00;99.90;;;;;;5011653;28;20037;-64
2020/12/16 08:33:33;;;;;;;53.85;32.20;;;6.10;99.90;;;;;;4994158;28;20474;-65
2020/12/16 08:36:06;;;;;;;53.67;33.00;;;6.20;99.90;;;;;;5011797;28;20033;-66
2020/12/16 08:38:35;;;;;;;61.33;30.70;;;6.10;99.90;;;;;;5011092;28;20026;-65
2020/12/16 08:41:02;;;;;;;51.13;28.40;;;6.30;99.90;;;;;;5009778;28;20508;-66
2020/12/16 08:43:32;;;;;;;47.97;26.58;;;6.40;99.90;;;;;;5009250;28;20034;-67
2020/12/16 08:46:05;;;;;;;50.40;28.83;;;6.40;99.90;;;;;;5006721;28;20481;-68
2020/12/16 08:48:42;;;;;;;47.40;26.90;;;6.50;99.90;;;;;;5011037;28;20037;-67
2020/12/16 08:51:09;;;;;;;43.75;24.15;;;6.60;99.90;;;;;;5012170;28;20090;-68
2020/12/16 08:53:49;;;;;;;44.33;26.05;;;6.70;99.90;;;;;;5011519;28;20053;-65
2020/12/16 08:56:31;;;;;;;46.00;27.50;;;6.70;99.90;;;;;;4994031;28;20101;-66
2020/12/16 08:59:15;;;;;;;46.47;26.05;;;6.80;99.90;;;;;;4996507;28;20022;-63
2020/12/16 09:01:46;;;;;;;41.35;23.92;;;6.80;99.90;;;;;;4989227;28;20489;-65
2020/12/16 09:04:32;;;;;;;41.00;23.10;;;6.80;99.90;;;;;;4991692;28;20057;-63
2020/12/16 09:06:59;;;;;;;39.45;23.40;;;6.90;99.90;;;;;;5010906;28;20425;-63
2020/12/16 09:09:25;;;;;;;39.13;23.83;;;6.90;99.90;;;;;;5009301;28;20030;-61
2020/12/16 09:11:50;;;;;;;41.50;24.92;;;7.00;99.90;;;;;;4990917;28;20393;-63
2020/12/16 09:14:17;;;;;;;38.20;22.85;;;7.10;99.90;;;;;;5010577;28;20195;-63
2020/12/16 09:16:43;;;;;;;39.25;23.40;;;7.20;99.90;;;;;;4993367;28;20416;-63
2020/12/16 09:19:16;;;;;;;36.25;23.45;;;7.10;99.90;;;;;;5010067;28;20512;-64
2020/12/16 09:21:42;;;;;;;39.67;24.15;;;7.20;99.90;;;;;;4994833;28;20106;-64
2020/12/16 09:24:07;;;;;;;41.20;24.13;;;7.30;99.90;;;;;;5007997;28;20030;-62
2020/12/16 09:26:47;;;;;;;39.63;23.92;;;7.30;99.90;;;;;;5011183;28;20056;-62
2020/12/16 09:29:20;;;;;;;39.53;22.63;;;7.30;99.90;;;;;;4998561;28;20026;-62
2020/12/16 09:31:46;;;;;;;38.00;21.85;;;7.40;99.90;;;;;;4991087;28;20180;-61
2020/12/16 09:34:12;;;;;;;36.75;22.30;;;7.50;99.90;;;;;;4973968;28;20058;-63
2020/12/16 09:36:38;;;;;;;34.30;20.00;;;7.50;99.90;;;;;;4990913;28;20093;-63
2020/12/16 09:39:06;;;;;;;42.47;21.75;;;7.50;99.90;;;;;;4981307;28;20400;-64
2020/12/16 09:41:49;;;;;;;;;;;7.60;99.90;;;;;;5002164;28;20420;-64
2020/12/16 09:44:29;;;;;;;36.35;19.65;;;7.70;99.90;;;;;;4992637;28;20304;-62
2020/12/16 09:47:10;;;;;;;37.03;21.08;;;7.80;99.90;;;;;;5005918;28;20084;-59
2020/12/16 09:49:36;;;;;;;32.25;19.30;;;7.80;99.90;;;;;;5010021;28;20494;-61
2020/12/16 09:52:01;;;;;;;32.60;19.75;;;7.90;99.90;;;;;;4989876;28;20026;-61
2020/12/16 09:54:31;;;;;;;33.80;20.83;;;8.00;99.90;;;;;;4990576;28;20474;-62
2020/12/16 09:57:07;;;;;;;32.40;21.20;;;8.00;99.90;;;;;;4989343;28;20018;-62
2020/12/16 09:59:34;;;;;;;32.95;20.80;;;8.10;99.90;;;;;;5006402;28;20026;-60
2020/12/16 10:02:00;;;;;;;29.75;19.40;;;8.20;99.90;;;;;;4996787;28;20347;-60
2020/12/16 10:04:26;;;;;;;30.23;19.40;;;8.40;99.90;;;;;;5010561;28;20072;-61
2020/12/16 10:06:52;;;;;;;29.10;18.30;;;8.70;99.90;;;;;;4992412;28;20030;-62
2020/12/16 10:09:18;;;;;;;28.25;19.08;;;8.70;99.90;;;;;;5009778;28;20032;-59
2020/12/16 10:11:48;;;;;;;31.55;19.15;;;8.70;99.90;;;;;;5009707;28;20026;-63
2020/12/16 10:14:17;;;;;;;28.95;17.02;;;8.60;99.90;;;;;;5000008;28;20054;-60
2020/12/16 10:16:47;;;;;;;29.02;18.08;;;8.60;99.90;;;;;;4990852;28;20481;-62
2020/12/16 10:19:16;;;;;;;29.17;17.83;;;8.70;99.90;;;;;;5007136;28;20028;-62
2020/12/16 10:21:46;;;;;;;28.65;18.35;;;8.90;99.90;;;;;;5010222;28;20022;-60
2020/12/16 10:24:12;;;;;;;26.90;16.55;;;9.00;99.90;;;;;;5010349;28;20068;-59
2020/12/16 10:26:37;;;;;;;26.27;16.52;;;9.20;99.90;;;;;;5009905;28;20109;-57
2020/12/16 10:29:03;;;;;;;25.67;16.00;;;9.30;99.90;;;;;;4995014;28;20284;-61
2020/12/16 10:31:29;;;;;;;27.75;17.58;;;9.40;99.90;;;;;;4981871;28;20030;-59
2020/12/16 10:33:55;;;;;;;27.10;16.50;;;9.30;99.90;;;;;;4997457;28;20374;-62
2020/12/16 10:36:21;;;;;;;24.40;15.80;;;9.20;99.90;;;;;;4999126;28;20034;-60
2020/12/16 10:38:47;;;;;;;26.15;16.60;;;9.10;99.90;;;;;;4978699;28;20480;-62
2020/12/16 10:41:13;;;;;;;26.80;15.77;;;9.00;99.90;;;;;;4997865;28;20034;-60
2020/12/16 10:43:39;;;;;;;26.33;16.63;;;8.90;99.90;;;;;;4997612;28;20034;-61
2020/12/16 10:46:09;;;;;;;27.90;14.90;;;8.90;99.90;;;;;;4996964;28;20374;-63
2020/12/16 10:48:35;;;;;;;23.30;13.13;;;9.40;99.90;;;;;;4995755;28;20034;-62
2020/12/16 10:51:01;;;;;;;22.10;13.30;;;10.20;99.90;;;;;;4995954;28;20070;-61
2020/12/16 10:53:27;;;;;;;23.48;13.25;;;11.00;99.90;;;;;;5001999;28;20032;-59
2020/12/16 10:55:54;;;;;;;20.67;12.88;;;11.90;99.90;;;;;;4995519;28;20405;-63
2020/12/16 10:58:20;;;;;;;21.38;13.35;;;12.70;99.90;;;;;;5004654;28;20030;-62
2020/12/16 11:00:46;;;;;;;18.77;12.20;;;13.40;99.90;;;;;;5013301;28;20074;-61
2020/12/16 11:03:12;;;;;;;19.65;12.80;;;14.00;99.90;;;;;;5013512;28;20026;-63
2020/12/16 11:05:37;;;;;;;19.88;13.35;;;14.40;99.90;;;;;;5013162;28;20117;-59
2020/12/16 11:08:03;;;;;;;19.95;14.27;;;14.80;99.90;;;;;;5013062;28;20030;-62
2020/12/16 11:10:30;;;;;;;20.13;14.32;;;14.90;99.90;;;;;;4995315;28;20026;-61
2020/12/16 11:12:55;;;;;;;21.45;14.80;;;15.60;99.90;;;;;;5013313;28;20018;-62
2020/12/16 11:15:21;;;;;;;19.38;14.70;;;15.50;99.90;;;;;;4995441;28;20052;-64
2020/12/16 11:17:46;;;;;;;18.50;14.70;;;16.00;99.90;;;;;;5011789;28;20034;-61
2020/12/16 11:20:12;;;;;;;19.35;15.60;;;16.30;99.90;;;;;;5013084;28;20041;-63
2020/12/16 11:22:38;;;;;;;20.52;15.73;;;16.60;99.90;;;;;;5000796;28;20026;-60
2020/12/16 11:25:06;;;;;;;19.00;14.95;;;17.20;99.90;;;;;;4986389;28;20113;-62
2020/12/16 11:27:32;;;;;;;18.85;14.52;;;17.60;99.90;;;;;;4993263;28;20034;-63
2020/12/16 11:29:58;;;;;;;18.50;14.25;;;17.90;99.90;;;;;;4993240;28;20027;-62
2020/12/16 11:32:23;;;;;;;21.13;14.35;;;18.20;99.90;;;;;;5000419;28;20033;-62
2020/12/16 11:34:49;;;;;;;19.65;14.43;;;18.10;99.90;;;;;;5001579;28;20041;-62
2020/12/16 11:37:15;;;;;;;20.98;14.35;;;18.30;99.90;;;;;;4996343;28;20042;-60
2020/12/16 11:39:42;;;;;;;19.33;14.82;;;18.70;99.90;;;;;;5012136;28;20026;-60
2020/12/16 11:42:08;;;;;;;18.98;14.50;;;17.70;99.90;;;;;;5001196;28;20097;-62
2020/12/16 11:44:34;;;;;;;18.60;14.30;;;17.70;99.90;;;;;;4993337;28;20026;-60
2020/12/16 11:47:09;;;;;;;17.98;14.43;;;17.80;99.90;;;;;;4993500;28;20029;-63
2020/12/16 11:49:35;;;;;;;19.55;13.75;;;18.00;99.90;;;;;;4992886;28;20058;-59
2020/12/16 11:52:01;;;;;;;17.90;14.55;;;18.60;99.90;;;;;;5009006;28;20055;-60
2020/12/16 11:54:26;;;;;;;18.85;14.23;;;18.60;99.90;;;;;;5002813;28;20486;-60
2020/12/16 11:56:52;;;;;;;17.30;13.75;;;18.00;99.90;;;;;;4989085;28;20033;-61
2020/12/16 11:59:18;;;;;;;18.17;14.63;;;18.20;99.90;;;;;;5007215;28;20033;-60
2020/12/16 12:01:44;;;;;;;17.98;15.00;;;18.30;99.90;;;;;;4994970;28;20026;-62
2020/12/16 12:04:09;;;;;;;18.45;15.20;;;18.30;99.90;;;;;;4985427;28;20390;-60
2020/12/16 12:06:35;;;;;;;18.35;15.00;;;18.40;99.90;;;;;;5004703;28;20061;-56
2020/12/16 12:09:02;;;;;;;19.70;14.73;;;18.20;99.90;;;;;;5011721;28;20037;-64
2020/12/16 12:11:28;;;;;;;18.27;13.85;;;18.60;99.90;;;;;;4998021;28;20045;-61
2020/12/16 12:13:54;;;;;;;18.23;13.90;;;19.00;99.90;;;;;;4975510;28;20442;-57
2020/12/16 12:16:19;;;;;;;23.10;14.88;;;19.00;99.90;;;;;;4992524;28;20038;-60
2020/12/16 12:18:45;;;;;;;17.83;14.57;;;19.10;99.90;;;;;;4991482;28;20037;-63
2020/12/16 12:21:16;;;;;;;17.77;14.27;;;19.50;99.90;;;;;;4992013;28;20026;-62
2020/12/16 12:23:42;;;;;;;16.85;13.13;;;19.70;99.90;;;;;;4992687;28;20093;-61
2020/12/16 12:26:07;;;;;;;17.38;13.10;;;19.50;99.90;;;;;;5009476;28;20038;-60
2020/12/16 12:28:33;;;;;;;16.63;13.55;;;19.40;99.90;;;;;;4993198;28;20033;-58
2020/12/16 12:30:59;;;;;;;17.27;13.20;;;19.40;99.90;;;;;;4993944;28;20034;-63
2020/12/16 12:33:24;;;;;;;17.73;13.88;;;19.00;99.90;;;;;;5011445;28;20489;-60
2020/12/16 12:35:50;;;;;;;19.40;13.75;;;18.20;99.90;;;;;;4994139;28;20137;-63
2020/12/16 12:38:16;;;;;;;16.80;13.32;;;18.10;99.90;;;;;;5011638;28;20030;-61
2020/12/16 12:40:44;;;;;;;18.65;13.27;;;18.70;99.90;;;;;;5010795;28;20077;-61
2020/12/16 12:43:10;;;;;;;20.85;15.30;;;19.00;99.90;;;;;;5011898;28;20101;-63
2020/12/16 12:45:35;;;;;;;17.67;13.60;;;19.30;99.90;;;;;;5011723;28;20022;-62
2020/12/16 12:48:01;;;;;;;18.73;14.60;;;19.30;99.90;;;;;;4993804;28;20079;-63
2020/12/16 12:50:27;;;;;;;17.92;13.38;;;19.10;99.90;;;;;;4999247;28;20503;-61
2020/12/16 12:52:52;;;;;;;22.35;14.80;;;19.00;99.90;;;;;;4991318;28;20045;-62